Time;durP1;ratioP1;P1;durP2;ratioP2;P2;SDS_P1;SDS_P2;PMS_P1;PMS_P2;Temp;Humidity;BMP_temperature;BMP_pressure;BME280_temperature;BME280_humidity;BME280_pressure;Samples;Min_cycle;Max_cycle;Signal;HPM_P1;HPM_P2
2022/04/11 00:01:03;;;;;;;5.32;1.95;;;3.90;99.90;;;;;;5153300;27;20046;-79
2022/04/11 00:03:29;;;;;;;4.90;2.15;;;3.90;99.90;;;;;;5152542;27;20046;-79
2022/04/11 00:05:55;;;;;;;3.10;2.00;;;3.90;99.90;;;;;;5136186;27;20544;-79
2022/04/11 00:08:21;;;;;;;3.78;2.15;;;3.90;99.90;;;;;;5135201;27;20125;-79
2022/04/11 00:10:48;;;;;;;3.92;2.10;;;3.80;99.90;;;;;;5171739;27;20504;-79
2022/04/11 00:13:13;;;;;;;;;;;3.70;99.90;;;;;;5133032;27;20035;-80
2022/04/11 00:15:42;;;;;;;3.75;2.33;;;3.80;99.90;;;;;;5132077;27;19922;-79
2022/04/11 00:18:08;;;;;;;4.45;2.00;;;3.60;99.90;;;;;;5132362;27;20045;-79
2022/04/11 00:20:35;;;;;;;4.18;2.33;;;3.60;99.90;;;;;;5131829;27;20039;-78
2022/04/11 00:23:04;;;;;;;4.50;2.33;;;3.70;99.90;;;;;;5132022;27;20420;-79
2022/04/11 00:25:30;;;;;;;4.45;2.13;;;3.60;99.90;;;;;;5114677;27;20046;-80
2022/04/11 00:27:56;;;;;;;3.65;2.10;;;3.80;99.90;;;;;;5138553;27;20498;-80
2022/04/11 00:30:21;;;;;;;3.00;2.10;;;3.60;99.90;;;;;;5152510;27;20106;-80
2022/04/11 00:32:47;;;;;;;3.50;2.03;;;3.60;99.90;;;;;;5152904;27;20048;-79
2022/04/11 00:35:13;;;;;;;3.53;1.90;;;3.50;99.90;;;;;;5152898;27;20034;-79
2022/04/11 00:37:39;;;;;;;4.45;2.10;;;3.70;99.90;;;;;;5152400;27;20336;-80
2022/04/11 00:40:06;;;;;;;5.07;2.17;;;3.50;99.90;;;;;;5131514;27;20359;-79
2022/04/11 00:42:32;;;;;;;3.90;1.80;;;3.60;99.90;;;;;;5134290;27;20072;-79
2022/04/11 00:45:02;;;;;;;5.67;2.23;;;3.60;99.90;;;;;;5141929;27;20042;-79
2022/04/11 00:47:28;;;;;;;4.53;2.30;;;3.60;99.90;;;;;;5131593;27;20300;-80
2022/04/11 00:49:59;;;;;;;4.35;2.22;;;3.60;99.90;;;;;;5152278;27;20045;-78
2022/04/11 00:52:25;;;;;;;4.32;2.10;;;3.60;99.90;;;;;;5152362;27;20037;-79
2022/04/11 00:54:51;;;;;;;4.93;2.13;;;4.00;99.90;;;;;;5133565;27;20475;-79
2022/04/11 00:57:18;;;;;;;5.75;1.90;;;3.60;99.90;;;;;;5141958;27;20114;-79
2022/04/11 00:59:43;;;;;;;;;;;3.60;99.90;;;;;;5132420;27;20297;-79
2022/04/11 01:02:09;;;;;;;5.85;2.08;;;3.60;99.90;;;;;;5142246;27;19915;-79
2022/04/11 01:04:35;;;;;;;7.00;2.40;;;3.60;99.90;;;;;;5130430;27;20045;-79
2022/04/11 01:07:00;;;;;;;5.00;2.20;;;4.60;99.90;;;;;;5152464;27;20045;-80
2022/04/11 01:09:27;;;;;;;5.20;2.20;;;3.60;99.90;;;;;;5152032;27;20525;-79
2022/04/11 01:11:53;;;;;;;5.78;2.20;;;3.60;99.90;;;;;;5147649;27;20130;-79
2022/04/11 01:14:21;;;;;;;7.20;2.80;;;3.60;99.90;;;;;;5130765;27;20122;-79
2022/04/11 01:16:48;;;;;;;4.32;2.25;;;3.50;99.90;;;;;;5144883;27;20481;-79
2022/04/11 01:19:15;;;;;;;4.68;2.42;;;3.50;99.90;;;;;;5164687;27;20034;-79
2022/04/11 01:21:41;;;;;;;5.65;2.30;;;3.50;99.90;;;;;;5136440;27;20505;-79
2022/04/11 01:24:07;;;;;;;;;;;3.50;99.90;;;;;;5132190;27;20470;-79
2022/04/11 01:26:33;;;;;;;3.72;2.50;;;3.70;99.90;;;;;;5131166;27;20028;-78
2022/04/11 01:28:59;;;;;;;5.45;2.65;;;3.40;99.90;;;;;;5143272;27;20054;-78
2022/04/11 01:31:25;;;;;;;4.80;2.10;;;3.20;99.90;;;;;;5127880;27;20514;-78
2022/04/11 01:33:51;;;;;;;3.90;2.30;;;3.10;99.90;;;;;;5119610;27;20066;-79
2022/04/11 01:36:18;;;;;;;6.05;2.40;;;3.00;99.90;;;;;;5155599;27;20661;-80
2022/04/11 01:38:44;;;;;;;3.75;2.30;;;3.00;99.90;;;;;;5143241;27;20038;-80
2022/04/11 01:41:09;;;;;;;3.95;2.10;;;2.90;99.90;;;;;;5118069;27;20486;-80
2022/04/11 01:43:35;;;;;;;5.85;2.33;;;2.90;99.90;;;;;;5135029;27;20470;-79
2022/04/11 01:46:01;;;;;;;4.05;2.10;;;2.90;99.90;;;;;;5118364;27;20046;-79
2022/04/11 01:48:26;;;;;;;4.20;2.23;;;2.90;99.90;;;;;;5150049;27;20043;-80
2022/04/11 01:50:52;;;;;;;6.83;2.20;;;2.80;99.90;;;;;;5174447;27;20035;-79
2022/04/11 01:53:19;;;;;;;4.75;2.63;;;2.80;99.90;;;;;;5174322;27;20030;-79
2022/04/11 01:55:46;;;;;;;6.28;2.20;;;2.80;99.90;;;;;;5138698;27;20049;-79
2022/04/11 01:58:12;;;;;;;6.90;2.40;;;2.70;99.90;;;;;;5134727;27;20042;-79
2022/04/11 02:00:38;;;;;;;;;;;2.80;99.90;;;;;;5134961;27;20133;-80
2022/04/11 02:03:05;;;;;;;5.82;2.45;;;2.70;99.90;;;;;;5135188;27;20335;-79
2022/04/11 02:05:31;;;;;;;6.38;2.20;;;2.90;99.90;;;;;;5134206;27;20111;-79
2022/04/11 02:07:58;;;;;;;6.70;2.38;;;2.70;99.90;;;;;;5117379;27;20027;-78
2022/04/11 02:10:23;;;;;;;4.00;2.65;;;2.70;99.90;;;;;;5133887;27;20482;-79
2022/04/11 02:12:50;;;;;;;3.30;2.45;;;2.60;99.90;;;;;;5134637;27;20034;-79
2022/04/11 02:15:16;;;;;;;;;;;2.50;99.90;;;;;;5137185;27;20035;-79
2022/04/11 02:17:42;;;;;;;4.55;2.30;;;2.50;99.90;;;;;;5189776;27;19915;-80
2022/04/11 02:20:08;;;;;;;4.90;2.88;;;2.40;99.90;;;;;;5131805;27;20371;-79
2022/04/11 02:22:44;;;;;;;6.65;2.47;;;2.40;99.90;;;;;;5134254;27;20386;-79
2022/04/11 02:25:11;;;;;;;5.45;2.58;;;2.40;99.90;;;;;;5166664;27;20073;-80
2022/04/11 02:27:36;;;;;;;5.47;2.47;;;2.40;99.90;;;;;;5133240;27;20045;-79
2022/04/11 02:30:03;;;;;;;7.50;2.85;;;2.50;99.90;;;;;;5134316;27;20083;-79
2022/04/11 02:32:29;;;;;;;4.75;2.40;;;2.50;99.90;;;;;;5148803;27;20477;-79
2022/04/11 02:34:54;;;;;;;6.03;2.70;;;2.40;99.90;;;;;;5154768;27;20085;-79
2022/04/11 02:37:21;;;;;;;6.83;2.43;;;2.40;99.90;;;;;;5154724;27;20677;-79
2022/04/11 02:39:46;;;;;;;5.70;2.42;;;2.40;99.90;;;;;;5154921;27;20056;-79
2022/04/11 02:42:21;;;;;;;5.90;2.43;;;2.40;99.90;;;;;;5135578;27;20125;-79
2022/04/11 02:44:47;;;;;;;7.90;2.90;;;2.40;99.90;;;;;;5115209;27;20280;-79
2022/04/11 02:47:12;;;;;;;4.00;2.30;;;2.40;99.90;;;;;;5134072;27;20236;-80
2022/04/11 02:49:38;;;;;;;4.43;2.40;;;2.40;99.90;;;;;;5133839;27;20034;-79
2022/04/11 02:52:04;;;;;;;5.10;2.67;;;2.40;99.90;;;;;;5133675;27;20042;-80
2022/04/11 02:54:30;;;;;;;4.18;2.50;;;2.30;99.90;;;;;;5116714;27;20038;-79
2022/04/11 02:56:55;;;;;;;5.45;2.85;;;2.40;99.90;;;;;;5133816;27;20031;-79
2022/04/11 02:59:21;;;;;;;4.63;2.60;;;2.30;99.90;;;;;;5146058;27;20042;-80
2022/04/11 03:01:47;;;;;;;5.70;3.00;;;2.30;99.90;;;;;;5154015;27;20291;-80
2022/04/11 03:04:12;;;;;;;5.87;2.60;;;2.30;99.90;;;;;;5114994;27;20145;-80
2022/04/11 03:06:38;;;;;;;5.87;2.87;;;2.50;99.90;;;;;;5140399;27;20046;-79
2022/04/11 03:09:04;;;;;;;4.83;2.37;;;2.20;99.90;;;;;;5133545;27;20030;-80
2022/04/11 03:11:29;;;;;;;5.23;2.57;;;2.20;99.90;;;;;;5116015;27;20539;-79
2022/04/11 03:13:55;;;;;;;6.27;2.73;;;2.20;99.90;;;;;;5116024;27;20277;-79
2022/04/11 03:16:21;;;;;;;5.23;2.83;;;2.20;99.90;;;;;;5160400;27;20374;-79
2022/04/11 03:18:46;;;;;;;9.48;3.17;;;2.20;99.90;;;;;;5150141;27;20046;-80
2022/04/11 03:21:12;;;;;;;6.57;3.03;;;2.20;99.90;;;;;;5133587;27;20444;-79
2022/04/11 03:23:37;;;;;;;7.80;2.97;;;2.20;99.90;;;;;;5131012;27;20039;-79
2022/04/11 03:26:03;;;;;;;4.57;2.50;;;2.20;99.90;;;;;;5116425;27;20045;-78
2022/04/11 03:28:29;;;;;;;6.47;2.83;;;2.20;99.90;;;;;;5169426;27;20050;-79
2022/04/11 03:30:54;;;;;;;5.50;3.00;;;2.20;99.90;;;;;;5153811;27;20038;-79
2022/04/11 03:33:20;;;;;;;6.53;3.17;;;2.20;99.90;;;;;;5172455;27;20642;-79
2022/04/11 03:35:46;;;;;;;5.73;3.00;;;2.20;99.90;;;;;;5135932;27;20073;-80
2022/04/11 03:38:11;;;;;;;6.00;2.67;;;2.20;99.90;;;;;;5143176;27;20043;-80
2022/04/11 03:40:37;;;;;;;4.10;2.70;;;2.50;99.90;;;;;;5120889;27;20062;-79
2022/04/11 03:43:04;;;;;;;6.82;3.47;;;2.20;99.90;;;;;;5153530;27;20046;-79
2022/04/11 03:45:29;;;;;;;4.18;2.78;;;2.30;99.90;;;;;;5141204;27;20038;-79
2022/04/11 03:47:55;;;;;;;5.90;2.87;;;2.40;99.90;;;;;;5132805;27;20046;-79
2022/04/11 03:50:21;;;;;;;5.93;3.20;;;2.40;99.90;;;;;;5115906;27;20048;-79
2022/04/11 03:52:47;;;;;;;7.00;3.38;;;2.40;99.90;;;;;;5132393;27;20466;-80
2022/04/11 03:55:12;;;;;;;4.67;3.00;;;2.40;99.90;;;;;;5154798;27;20122;-79
2022/04/11 03:57:38;;;;;;;4.35;2.88;;;2.50;99.90;;;;;;5138288;27;20121;-80
2022/04/11 04:00:04;;;;;;;7.27;3.20;;;2.60;99.90;;;;;;5137745;27;20038;-80
2022/04/11 04:02:30;;;;;;;7.75;3.20;;;2.60;99.90;;;;;;5152598;27;20287;-79
2022/04/11 04:04:56;;;;;;;4.32;2.70;;;2.60;99.90;;;;;;5153207;27;20034;-80
2022/04/11 04:07:22;;;;;;;3.53;2.80;;;2.70;99.90;;;;;;5134352;27;20075;-79
2022/04/11 04:09:47;;;;;;;6.28;2.95;;;2.80;99.90;;;;;;5131541;27;20073;-79
2022/04/11 04:12:13;;;;;;;5.47;3.10;;;2.80;99.90;;;;;;5132276;27;20478;-80
2022/04/11 04:14:39;;;;;;;4.80;3.35;;;2.80;99.90;;;;;;5115008;27;20073;-80
2022/04/11 04:17:04;;;;;;;5.50;3.27;;;2.90;99.90;;;;;;5138487;27;20059;-78
2022/04/11 04:19:30;;;;;;;6.83;3.70;;;2.90;99.90;;;;;;5171540;27;20303;-78
2022/04/11 04:21:56;;;;;;;9.30;2.90;;;2.90;99.90;;;;;;5135729;27;20086;-78
2022/04/11 04:24:22;;;;;;;4.83;3.00;;;2.90;99.90;;;;;;5152974;27;20283;-78
2022/04/11 04:26:49;;;;;;;4.25;3.00;;;3.40;99.90;;;;;;5147266;27;20054;-79
2022/04/11 04:29:16;;;;;;;4.03;3.08;;;2.90;99.90;;;;;;5115268;27;20054;-79
2022/04/11 04:31:43;;;;;;;5.15;3.05;;;3.20;99.90;;;;;;5148862;27;20096;-80
2022/04/11 04:34:08;;;;;;;;;;;3.00;99.90;;;;;;5132844;27;20031;-80
2022/04/11 04:36:34;;;;;;;6.20;3.40;;;3.00;99.90;;;;;;5132017;27;19915;-80
2022/04/11 04:39:02;;;;;;;7.57;3.15;;;3.10;99.90;;;;;;5128855;27;20045;-80
2022/04/11 04:41:28;;;;;;;6.80;2.97;;;3.10;99.90;;;;;;5143608;27;20484;-79
2022/04/11 04:43:54;;;;;;;5.85;3.05;;;3.40;99.90;;;;;;5150011;27;20042;-79
2022/04/11 04:46:19;;;;;;;7.23;3.20;;;3.10;99.90;;;;;;5132022;27;20130;-80
2022/04/11 04:48:45;;;;;;;5.50;3.50;;;3.10;99.90;;;;;;5147527;27;20122;-79
2022/04/11 04:51:11;;;;;;;7.43;3.43;;;3.10;99.90;;;;;;5146862;27;20288;-79
2022/04/11 04:53:37;;;;;;;4.90;3.30;;;3.20;99.90;;;;;;5131753;27;20067;-80
2022/04/11 04:56:03;;;;;;;8.55;3.25;;;3.20;99.90;;;;;;5114262;27;20273;-80
2022/04/11 04:58:29;;;;;;;6.07;3.95;;;3.20;99.90;;;;;;5131836;27;20066;-80
2022/04/11 05:00:54;;;;;;;5.40;3.45;;;3.20;99.90;;;;;;5132561;27;20485;-80
2022/04/11 05:03:20;;;;;;;8.13;3.40;;;3.20;99.90;;;;;;5115782;27;20043;-80
2022/04/11 05:05:46;;;;;;;6.07;3.50;;;3.20;99.90;;;;;;5132174;27;20078;-80
2022/04/11 05:08:11;;;;;;;7.60;3.57;;;3.30;99.90;;;;;;5132595;27;20435;-80
2022/04/11 05:10:37;;;;;;;5.97;3.20;;;3.30;99.90;;;;;;5117625;27;20305;-80
2022/04/11 05:13:02;;;;;;;4.23;3.10;;;3.30;99.90;;;;;;5136643;27;20030;-80
2022/04/11 05:15:29;;;;;;;5.13;3.10;;;3.70;99.90;;;;;;5136178;27;20035;-80
2022/04/11 05:17:55;;;;;;;6.95;3.50;;;3.30;99.90;;;;;;5135833;27;20039;-80
2022/04/11 05:20:21;;;;;;;5.80;2.88;;;3.30;99.90;;;;;;5136432;27;20047;-79
2022/04/11 05:22:47;;;;;;;4.07;3.00;;;3.40;99.90;;;;;;5154556;27;20104;-80
2022/04/11 05:25:12;;;;;;;7.10;3.33;;;3.50;99.90;;;;;;5119528;27;20271;-79
2022/04/11 05:27:38;;;;;;;5.67;3.10;;;3.40;99.90;;;;;;5118360;27;20050;-80
2022/04/11 05:30:05;;;;;;;7.03;3.03;;;3.50;99.90;;;;;;5136097;27;20733;-79
2022/04/11 05:32:33;;;;;;;6.10;3.17;;;3.50;99.90;;;;;;5136235;27;20770;-80
2022/04/11 05:34:59;;;;;;;5.55;3.38;;;3.60;99.90;;;;;;5135970;27;20035;-80
2022/04/11 05:37:25;;;;;;;6.18;3.13;;;3.60;99.90;;;;;;5135668;27;20107;-79
2022/04/11 05:39:51;;;;;;;4.70;3.10;;;3.50;99.90;;;;;;5135684;27;20038;-79
2022/04/11 05:42:16;;;;;;;4.13;3.00;;;4.00;99.90;;;;;;5135769;27;20510;-79
2022/04/11 05:44:42;;;;;;;4.57;3.13;;;3.60;99.90;;;;;;5135164;27;20284;-80
2022/04/11 05:47:08;;;;;;;5.55;3.22;;;3.90;99.90;;;;;;5136038;27;20295;-80
2022/04/11 05:49:33;;;;;;;5.57;3.33;;;3.80;99.90;;;;;;5135865;27;20049;-79
2022/04/11 05:52:00;;;;;;;5.82;3.40;;;4.00;99.90;;;;;;5135457;27;20030;-80
2022/04/11 05:54:25;;;;;;;9.25;3.13;;;3.90;99.90;;;;;;5135603;27;20038;-80
2022/04/11 05:56:52;;;;;;;7.15;2.83;;;3.90;99.90;;;;;;5118217;27;20035;-80
2022/04/11 05:59:18;;;;;;;6.07;2.92;;;3.90;99.90;;;;;;5121007;27;20030;-80
2022/04/11 06:01:44;;;;;;;5.72;3.00;;;4.00;99.90;;;;;;5155893;27;20419;-80
2022/04/11 06:04:10;;;;;;;5.78;2.58;;;4.10;99.90;;;;;;5156248;27;20034;-80
2022/04/11 06:06:36;;;;;;;6.20;2.80;;;4.00;99.90;;;;;;5156586;27;20027;-80
2022/04/11 06:09:03;;;;;;;4.82;2.70;;;4.10;99.90;;;;;;5150264;27;20070;-80
2022/04/11 06:11:28;;;;;;;5.25;2.67;;;4.10;99.90;;;;;;5120004;27;20517;-80
2022/04/11 06:13:54;;;;;;;6.40;2.90;;;4.10;99.90;;;;;;5155833;27;20144;-80
2022/04/11 06:16:20;;;;;;;9.27;2.73;;;4.40;99.90;;;;;;5148099;27;20114;-79
2022/04/11 06:18:45;;;;;;;5.40;3.03;;;4.20;99.90;;;;;;5135183;27;20076;-79
2022/04/11 06:21:11;;;;;;;8.23;2.87;;;4.20;99.90;;;;;;5144501;27;20041;-79
2022/04/11 06:23:37;;;;;;;5.10;2.70;;;4.20;99.90;;;;;;5155870;27;20778;-79
2022/04/11 06:26:03;;;;;;;5.23;3.23;;;4.20;99.90;;;;;;5155720;27;20555;-79
2022/04/11 06:28:29;;;;;;;5.70;2.88;;;4.30;99.90;;;;;;5155480;27;20077;-80
2022/04/11 06:30:55;;;;;;;6.97;2.97;;;4.30;99.90;;;;;;5155188;27;20042;-80
2022/04/11 06:33:20;;;;;;;4.18;2.67;;;4.60;99.90;;;;;;5155900;27;20038;-81
2022/04/11 06:35:46;;;;;;;4.30;2.57;;;4.40;99.90;;;;;;5148771;27;20077;-80
2022/04/11 06:38:12;;;;;;;4.18;2.33;;;4.40;99.90;;;;;;5100841;27;20091;-80
2022/04/11 06:40:37;;;;;;;5.23;2.73;;;4.70;99.90;;;;;;5117434;27;20490;-80
2022/04/11 06:43:03;;;;;;;4.80;2.30;;;4.50;99.90;;;;;;5134518;27;20039;-80
2022/04/11 06:45:29;;;;;;;5.87;2.50;;;4.60;99.90;;;;;;5134675;27;20042;-80
2022/04/11 06:47:54;;;;;;;7.20;2.57;;;4.60;99.90;;;;;;5134436;27;20388;-80
2022/04/11 06:50:20;;;;;;;5.13;2.23;;;4.70;99.90;;;;;;5117907;27;20391;-80
2022/04/11 06:52:46;;;;;;;6.45;2.63;;;4.80;99.90;;;;;;5117140;27;20034;-80
2022/04/11 06:55:11;;;;;;;6.63;2.63;;;4.90;99.90;;;;;;5134901;27;20074;-79
2022/04/11 06:57:37;;;;;;;4.73;2.77;;;4.90;99.90;;;;;;5134297;27;20038;-79
2022/04/11 07:00:04;;;;;;;6.10;2.73;;;5.20;99.90;;;;;;5134075;27;20121;-79
2022/04/11 07:02:30;;;;;;;6.70;2.70;;;5.10;99.90;;;;;;5134305;27;20125;-80
2022/04/11 07:04:56;;;;;;;6.18;2.70;;;5.20;99.90;;;;;;5134134;27;20153;-80
2022/04/11 07:07:22;;;;;;;5.60;2.07;;;5.30;99.90;;;;;;5134436;27;20397;-81
2022/04/11 07:09:47;;;;;;;5.05;2.03;;;5.40;99.90;;;;;;5152350;27;20121;-80
2022/04/11 07:12:13;;;;;;;3.80;2.00;;;5.50;99.90;;;;;;5133887;27;20380;-80
2022/04/11 07:14:39;;;;;;;4.97;2.00;;;5.60;99.90;;;;;;5134315;27;20431;-80
2022/04/11 07:17:05;;;;;;;3.20;1.77;;;5.70;99.90;;;;;;5134211;27;20034;-81
2022/04/11 07:19:30;;;;;;;4.30;1.90;;;5.70;99.90;;;;;;5133853;27;20348;-80
2022/04/11 07:21:56;;;;;;;2.05;1.60;;;5.80;99.90;;;;;;5116539;27;20042;-80
2022/04/11 07:24:23;;;;;;;3.85;2.00;;;5.80;99.90;;;;;;5133865;27;20038;-79
2022/04/11 07:26:49;;;;;;;;;;;6.00;99.90;;;;;;5118919;27;20062;-79
2022/04/11 07:29:14;;;;;;;3.80;1.60;;;6.10;99.90;;;;;;5171878;27;19918;-80
2022/04/11 07:31:40;;;;;;;4.57;1.80;;;6.20;99.90;;;;;;5154093;27;20049;-80
2022/04/11 07:34:06;;;;;;;2.63;1.73;;;6.20;99.90;;;;;;5153939;27;20125;-80
2022/04/11 07:36:32;;;;;;;2.92;1.50;;;6.30;99.90;;;;;;5131210;27;20041;-80
2022/04/11 07:38:58;;;;;;;4.10;2.03;;;6.40;99.90;;;;;;5116514;27;20436;-80
2022/04/11 07:41:24;;;;;;;4.65;1.65;;;6.50;99.90;;;;;;5133373;27;20325;-80
2022/04/11 07:43:51;;;;;;;4.18;1.83;;;6.70;99.90;;;;;;5133181;27;20114;-80
2022/04/11 07:46:16;;;;;;;6.18;2.20;;;6.70;99.90;;;;;;5133697;27;20026;-81
2022/04/11 07:48:42;;;;;;;2.77;1.70;;;6.80;99.90;;;;;;5152299;27;20083;-80
2022/04/11 07:51:08;;;;;;;4.93;1.77;;;7.20;99.90;;;;;;5133226;27;20475;-81
2022/04/11 07:53:33;;;;;;;2.67;1.40;;;7.20;99.90;;;;;;5133672;27;20280;-80
2022/04/11 07:55:59;;;;;;;5.90;1.77;;;7.30;99.90;;;;;;5133107;27;20038;-80
2022/04/11 07:58:25;;;;;;;4.33;1.80;;;7.50;99.90;;;;;;5133264;27;20047;-81
2022/04/11 08:00:53;;;;;;;6.15;1.40;;;7.70;99.90;;;;;;5099160;27;20031;-80
2022/04/11 08:03:20;;;;;;;3.50;1.70;;;7.80;99.90;;;;;;5148283;27;20046;-80
2022/04/11 08:05:46;;;;;;;;;;;8.00;99.90;;;;;;5133156;27;20084;-80
2022/04/11 08:08:11;;;;;;;4.95;1.73;;;8.10;99.90;;;;;;5132930;27;20374;-80
2022/04/11 08:10:37;;;;;;;4.65;1.90;;;8.20;99.90;;;;;;5133110;27;20034;-80
2022/04/11 08:13:03;;;;;;;4.13;1.70;;;8.40;99.90;;;;;;5132603;27;20046;-80
2022/04/11 08:15:31;;;;;;;4.60;1.83;;;8.50;99.90;;;;;;5133070;27;20026;-80
2022/04/11 08:17:58;;;;;;;3.97;1.58;;;8.60;99.90;;;;;;5132879;27;20045;-80
2022/04/11 08:20:25;;;;;;;4.50;1.92;;;8.70;99.90;;;;;;5132991;27;20046;-80
2022/04/11 08:22:51;;;;;;;8.13;1.92;;;8.80;99.90;;;;;;5115639;27;20506;-80
2022/04/11 08:25:17;;;;;;;4.47;1.60;;;9.10;99.90;;;;;;5133045;27;20039;-80
2022/04/11 08:27:43;;;;;;;4.82;1.63;;;9.30;99.90;;;;;;5115529;27;20494;-80
2022/04/11 08:30:10;;;;;;;5.65;2.20;;;9.60;99.90;;;;;;5115861;27;20041;-80
2022/04/11 08:32:47;;;;;;;3.38;1.75;;;10.00;99.90;;;;;;5132754;27;20095;-80
2022/04/11 08:35:13;;;;;;;;;;;10.40;99.90;;;;;;5135988;27;20038;-80
2022/04/11 08:37:42;;;;;;;4.95;1.63;;;10.50;99.90;;;;;;5153686;27;20373;-80
2022/04/11 08:40:10;;;;;;;5.53;2.00;;;10.80;99.90;;;;;;5136630;27;20068;-80
2022/04/11 08:42:38;;;;;;;6.10;1.80;;;10.70;99.90;;;;;;5153313;27;20049;-80
2022/04/11 08:45:04;;;;;;;8.40;1.88;;;11.00;99.90;;;;;;5156838;27;20042;-81
2022/04/11 08:47:30;;;;;;;4.82;2.00;;;11.30;99.90;;;;;;5157783;27;20416;-81
2022/04/11 08:49:56;;;;;;;4.18;1.88;;;11.70;99.90;;;;;;5157299;27;20034;-80
2022/04/11 08:52:23;;;;;;;5.32;1.70;;;12.10;99.90;;;;;;5157598;27;20034;-80
2022/04/11 08:54:49;;;;;;;4.80;1.63;;;12.80;99.90;;;;;;5157527;27;20102;-81
2022/04/11 08:57:15;;;;;;;4.45;1.65;;;13.10;99.90;;;;;;5157282;27;20073;-80
2022/04/11 08:59:41;;;;;;;3.47;1.80;;;13.30;99.90;;;;;;5158029;27;20085;-80
2022/04/11 09:02:10;;;;;;;4.25;1.35;;;13.70;99.90;;;;;;5157385;27;20283;-81
2022/04/11 09:04:54;;;;;;;5.07;2.05;;;14.10;99.90;;;;;;5140738;27;20465;-79
2022/04/11 09:07:21;;;;;;;4.32;1.40;;;14.50;99.90;;;;;;5157219;27;20121;-81
2022/04/11 09:09:47;;;;;;;4.28;1.35;;;14.50;99.90;;;;;;5157458;27;20084;-81
2022/04/11 09:12:14;;;;;;;4.53;1.55;;;14.40;99.50;;;;;;5176017;27;20083;-81
2022/04/11 09:14:41;;;;;;;5.07;1.58;;;15.00;98.50;;;;;;5157110;27;20083;-81
2022/04/11 09:17:09;;;;;;;3.75;1.50;;;14.40;97.30;;;;;;5157017;27;20069;-80
2022/04/11 09:19:35;;;;;;;6.25;1.42;;;14.70;98.50;;;;;;5157086;27;20042;-80
2022/04/11 09:22:02;;;;;;;4.15;1.55;;;14.60;97.80;;;;;;5139732;27;20034;-81
2022/04/11 09:24:29;;;;;;;;;;;15.10;98.50;;;;;;5134732;27;20683;-81
2022/04/11 09:26:55;;;;;;;8.00;2.22;;;15.30;96.20;;;;;;5135589;27;20009;-80
2022/04/11 09:29:26;;;;;;;5.00;1.48;;;15.60;96.50;;;;;;5119481;27;20494;-81
2022/04/11 09:31:52;;;;;;;3.47;1.38;;;16.00;96.60;;;;;;5119125;27;20077;-80
2022/04/11 09:34:20;;;;;;;3.78;1.27;;;15.60;93.80;;;;;;5136224;27;20038;-80
2022/04/11 09:36:54;;;;;;;2.97;1.35;;;15.20;95.30;;;;;;5119264;27;20090;-81
2022/04/11 09:39:30;;;;;;;3.50;1.60;;;15.20;93.70;;;;;;5135889;27;20055;-80
2022/04/11 09:41:57;;;;;;;;;;;15.60;93.20;;;;;;5119383;27;20099;-80
2022/04/11 09:44:34;;;;;;;2.67;1.33;;;15.50;92.50;;;;;;5136093;27;20286;-81
2022/04/11 09:47:02;;;;;;;3.55;1.50;;;15.90;93.90;;;;;;5135595;27;20090;-80
2022/04/11 09:49:28;;;;;;;4.03;1.33;;;15.90;91.70;;;;;;5136073;27;20406;-81
2022/04/11 09:52:07;;;;;;;4.50;1.45;;;16.20;91.60;;;;;;5135584;27;20042;-80
2022/04/11 09:54:37;;;;;;;3.35;1.65;;;16.80;92.50;;;;;;5135538;27;20039;-81
2022/04/11 09:57:05;;;;;;;3.88;1.50;;;17.50;91.00;;;;;;5118838;27;20046;-81
2022/04/11 09:59:31;;;;;;;3.47;1.63;;;17.40;90.80;;;;;;5138586;27;20030;-80
2022/04/11 10:01:57;;;;;;;3.38;1.45;;;17.40;86.20;;;;;;5174927;27;20087;-80
2022/04/11 10:04:24;;;;;;;3.70;1.40;;;16.70;89.30;;;;;;5156492;27;20038;-80
2022/04/11 10:06:50;;;;;;;4.60;1.48;;;16.80;91.00;;;;;;5156167;27;20030;-80
2022/04/11 10:09:19;;;;;;;3.78;1.33;;;16.90;88.20;;;;;;5174483;27;20038;-81
2022/04/11 10:11:45;;;;;;;2.63;0.80;;;17.50;84.70;;;;;;5156409;27;20038;-80
2022/04/11 10:14:12;;;;;;;;;;;17.70;78.70;;;;;;5156199;27;20034;-81
2022/04/11 10:16:42;;;;;;;5.60;1.10;;;17.50;79.90;;;;;;5190978;27;20014;-80
2022/04/11 10:19:09;;;;;;;2.78;1.15;;;17.70;79.30;;;;;;5155457;27;20030;-80
2022/04/11 10:21:47;;;;;;;2.92;1.27;;;17.50;79.30;;;;;;5155899;27;20039;-81
2022/04/11 10:24:36;;;;;;;4.75;1.23;;;17.90;74.70;;;;;;5155697;27;20034;-80
2022/04/11 10:27:19;;;;;;;2.80;1.10;;;18.30;77.60;;;;;;5155535;27;20497;-80
2022/04/11 10:29:46;;;;;;;4.18;1.00;;;18.20;74.20;;;;;;5156072;27;20110;-81
2022/04/11 10:32:17;;;;;;;2.88;1.05;;;18.40;76.10;;;;;;5155304;27;20134;-80
2022/04/11 10:34:46;;;;;;;3.42;1.20;;;18.90;75.20;;;;;;5155661;27;20034;-80
2022/04/11 10:37:12;;;;;;;3.28;1.10;;;18.90;74.10;;;;;;5155406;27;20079;-80
2022/04/11 10:39:39;;;;;;;3.00;1.02;;;18.90;73.40;;;;;;5155530;27;20038;-81
2022/04/11 10:42:09;;;;;;;3.75;1.05;;;19.30;72.50;;;;;;5138216;27;20453;-81
2022/04/11 10:44:46;;;;;;;1.98;1.00;;;19.40;69.10;;;;;;5155480;27;20113;-80
2022/04/11 10:47:15;;;;;;;3.50;1.02;;;18.90;68.80;;;;;;5154948;27;20033;-80
2022/04/11 10:49:50;;;;;;;3.70;1.02;;;18.50;69.20;;;;;;5155910;27;20088;-82
2022/04/11 10:52:31;;;;;;;1.75;1.00;;;18.80;69.90;;;;;;5155205;27;20037;-81
2022/04/11 10:55:17;;;;;;;1.83;0.88;;;19.10;68.50;;;;;;5153572;27;20034;-81
2022/04/11 10:57:42;;;;;;;2.75;1.10;;;18.80;67.70;;;;;;5134847;27;20038;-81
2022/04/11 11:00:24;;;;;;;3.25;1.25;;;18.50;69.40;;;;;;5128032;27;20034;-80
2022/04/11 11:02:50;;;;;;;3.97;1.40;;;18.30;68.10;;;;;;5155836;27;20389;-81
2022/04/11 11:05:37;;;;;;;2.10;1.15;;;18.70;68.50;;;;;;5155097;27;20436;-80
2022/04/11 11:08:11;;;;;;;3.63;1.30;;;19.20;68.70;;;;;;5153305;27;20046;-80
2022/04/11 11:11:00;;;;;;;3.65;1.40;;;19.40;68.90;;;;;;5154831;27;20109;-80
2022/04/11 11:13:35;;;;;;;3.63;1.45;;;19.40;69.90;;;;;;5173667;27;20042;-80
2022/04/11 11:16:07;;;;;;;3.10;1.60;;;18.70;69.40;;;;;;5154854;27;20034;-81
2022/04/11 11:18:48;;;;;;;4.15;1.60;;;18.90;69.90;;;;;;5154740;27;20030;-81
2022/04/11 11:21:22;;;;;;;7.40;1.95;;;19.10;71.80;;;;;;5154499;27;20113;-81
2022/04/11 11:24:03;;;;;;;4.88;1.85;;;19.40;70.80;;;;;;5137753;27;20061;-80
2022/04/11 11:26:48;;;;;;;3.95;1.85;;;19.80;69.70;;;;;;5154892;27;20507;-80
2022/04/11 11:29:33;;;;;;;3.92;1.80;;;20.30;70.50;;;;;;5173015;27;20490;-80
2022/04/11 11:32:05;;;;;;;3.95;2.10;;;19.50;69.60;;;;;;5154504;27;20035;-80
2022/04/11 11:34:36;;;;;;;5.80;1.80;;;19.50;70.30;;;;;;5154523;27;20069;-81
2022/04/11 11:37:04;;;;;;;3.67;1.63;;;19.90;70.50;;;;;;5143498;27;20042;-80
2022/04/11 11:39:31;;;;;;;3.72;1.70;;;19.90;69.20;;;;;;5116782;27;20031;-80
2022/04/11 11:42:05;;;;;;;2.88;1.70;;;19.70;70.20;;;;;;5133650;27;20042;-80
2022/04/11 11:44:31;;;;;;;4.47;2.20;;;19.20;71.80;;;;;;5133588;27;20075;-80
2022/04/11 11:46:58;;;;;;;4.90;2.20;;;19.90;69.30;;;;;;5133663;27;20069;-80
2022/04/11 11:49:26;;;;;;;4.40;1.90;;;20.30;68.40;;;;;;5133478;27;20034;-81
2022/04/11 11:51:53;;;;;;;4.40;1.98;;;20.00;68.10;;;;;;5143937;27;20038;-81
2022/04/11 11:54:33;;;;;;;4.85;1.95;;;20.40;70.00;;;;;;5153836;27;20038;-80
2022/04/11 11:56:59;;;;;;;5.68;1.90;;;20.90;67.70;;;;;;5154151;27;20102;-80
2022/04/11 11:59:25;;;;;;;4.10;1.88;;;20.40;69.20;;;;;;5154328;27;20038;-81
2022/04/11 12:04:36;;;;;;;3.17;1.95;;;20.30;67.70;;;;;;5153954;27;20069;-80
2022/04/11 12:07:01;;;;;;;3.58;2.13;;;19.90;67.50;;;;;;5136600;27;20042;-81
2022/04/11 12:09:45;;;;;;;3.05;1.90;;;18.60;67.30;;;;;;5153773;27;20043;-80
2022/04/11 12:12:11;;;;;;;4.00;1.92;;;19.60;68.30;;;;;;5153595;27;20086;-80
2022/04/11 12:14:56;;;;;;;;;;;20.00;67.40;;;;;;5149842;27;20031;-80
2022/04/11 12:17:30;;;;;;;3.55;1.95;;;19.70;67.30;;;;;;5115580;27;19983;-80
2022/04/11 12:20:05;;;;;;;4.00;1.95;;;20.00;68.70;;;;;;5133087;27;20394;-81
2022/04/11 12:22:31;;;;;;;2.90;1.60;;;20.60;65.80;;;;;;5133059;27;20107;-81
2022/04/11 12:24:56;;;;;;;3.53;1.98;;;20.70;65.50;;;;;;5116022;27;20049;-80
2022/04/11 12:27:23;;;;;;;;;;;20.30;64.20;;;;;;5132865;27;20520;-80
2022/04/11 12:29:50;;;;;;;5.00;2.20;;;20.40;64.70;;;;;;5133189;27;19966;-81
2022/04/11 12:32:16;;;;;;;;;;;20.60;63.60;;;;;;5133305;27;20118;-81
2022/04/11 12:34:44;;;;;;;4.00;1.63;;;20.30;64.40;;;;;;5115680;27;19921;-80
2022/04/11 12:37:12;;;;;;;6.22;2.33;;;20.90;65.50;;;;;;5133111;27;20512;-80
2022/04/11 12:39:57;;;;;;;5.40;2.15;;;21.60;64.40;;;;;;5115638;27;20070;-81
2022/04/11 12:42:28;;;;;;;3.75;2.00;;;21.30;64.90;;;;;;5132871;27;20510;-80
2022/04/11 12:45:08;;;;;;;3.53;1.80;;;21.50;63.70;;;;;;5116192;27;20043;-81
2022/04/11 12:48:00;;;;;;;3.90;1.70;;;21.80;62.00;;;;;;5132562;27;20046;-81
2022/04/11 12:50:26;;;;;;;4.30;1.80;;;21.70;61.00;;;;;;5132641;27;20390;-81
2022/04/11 12:52:52;;;;;;;;;;;21.70;62.60;;;;;;5133414;27;20035;-80
2022/04/11 12:55:25;;;;;;;3.00;1.70;;;21.10;62.60;;;;;;5151843;27;19923;-80
2022/04/11 12:58:03;;;;;;;3.38;1.73;;;20.60;62.10;;;;;;5153626;27;20042;-80
2022/04/11 13:00:32;;;;;;;5.72;2.00;;;20.80;62.70;;;;;;5152986;27;20095;-80
2022/04/11 13:02:58;;;;;;;4.20;2.10;;;21.50;61.80;;;;;;5153528;27;20038;-80